Time;durP1;ratioP1;P1;durP2;ratioP2;P2;SDS_P1;SDS_P2;PMS_P1;PMS_P2;Temp;Humidity;BMP_temperature;BMP_pressure;BME280_temperature;BME280_humidity;BME280_pressure;Samples;Min_cycle;Max_cycle;Signal;HPM_P1;HPM_P2
2022/08/03 00:00:50;;;;;;;3.73;2.20;;;;;;;;;;5045505;28;20680;-33
2022/08/03 00:03:17;;;;;;;2.40;2.30;;;;;;;;;;5040365;28;20205;-35
2022/08/03 00:05:45;;;;;;;3.87;2.40;;;;;;;;;;5032052;28;20202;-33
2022/08/03 00:08:12;;;;;;;3.27;2.23;;;;;;;;;;5036154;28;20232;-34
2022/08/03 00:10:39;;;;;;;2.50;2.30;;;;;;;;;;5045322;28;20198;-32
2022/08/03 00:13:06;;;;;;;3.13;2.80;;;;;;;;;;5050833;28;20216;-30
2022/08/03 00:15:33;;;;;;;2.93;2.27;;;;;;;;;;5051301;28;20300;-34
2022/08/03 00:18:01;;;;;;;2.40;2.20;;;;;;;;;;5046258;28;20229;-35
2022/08/03 00:20:28;;;;;;;2.87;2.33;;;;;;;;;;5045378;28;20209;-32
2022/08/03 00:22:56;;;;;;;6.77;2.20;;;;;;;;;;5047247;28;20216;-32
2022/08/03 00:25:23;;;;;;;2.50;2.30;;;;;;;;;;5054252;28;20202;-36
2022/08/03 00:27:50;;;;;;;2.37;2.17;;;;;;;;;;5054258;28;20221;-34
2022/08/03 00:30:17;;;;;;;2.80;2.33;;;;;;;;;;5050062;28;20275;-33
2022/08/03 00:32:44;;;;;;;2.60;2.40;;;;;;;;;;5049718;28;20233;-36
2022/08/03 00:35:12;;;;;;;2.73;2.50;;;;;;;;;;5052472;28;20205;-31
2022/08/03 00:37:39;;;;;;;5.43;2.50;;;;;;;;;;5049247;28;20249;-35
2022/08/03 00:40:07;;;;;;;2.73;2.30;;;;;;;;;;5052609;28;20201;-34
2022/08/03 00:42:34;;;;;;;2.57;2.37;;;;;;;;;;5068231;28;20204;-32
2022/08/03 00:47:30;;;;;;;2.60;2.40;;;;;;;;;;5037955;28;20261;-32
2022/08/03 00:49:57;;;;;;;2.30;2.10;;;;;;;;;;5031149;28;20208;-35
2022/08/03 00:52:25;;;;;;;2.70;2.37;;;;;;;;;;5020371;28;20201;-31
2022/08/03 00:54:52;;;;;;;2.57;2.37;;;;;;;;;;5031988;28;20205;-31
2022/08/03 00:57:19;;;;;;;2.50;2.30;;;;;;;;;;5026244;28;20238;-31
2022/08/03 00:59:48;;;;;;;2.87;2.33;;;;;;;;;;5026276;28;20213;-32
2022/08/03 01:02:15;;;;;;;2.60;2.40;;;;;;;;;;5032111;28;20229;-31
2022/08/03 01:04:42;;;;;;;2.80;2.57;;;;;;;;;;5029550;28;20203;-32
2022/08/03 01:07:13;;;;;;;3.40;2.57;;;;;;;;;;5022962;28;20221;-34
2022/08/03 01:09:47;;;;;;;3.80;2.20;;;;;;;;;;5036930;28;20197;-33
2022/08/03 01:12:17;;;;;;;2.50;2.30;;;;;;;;;;5029783;28;20218;-31
2022/08/03 01:14:46;;;;;;;4.07;2.13;;;;;;;;;;5021184;28;20202;-31
2022/08/03 01:17:16;;;;;;;4.97;2.60;;;;;;;;;;5029357;28;20750;-32
2022/08/03 01:19:47;;;;;;;4.87;2.43;;;;;;;;;;5033810;28;20217;-30
2022/08/03 01:22:37;;;;;;;2.30;2.10;;;;;;;;;;5015371;28;20236;-32
2022/08/03 01:25:10;;;;;;;3.80;2.80;;;;;;;;;;5030923;28;20205;-29
2022/08/03 01:27:43;;;;;;;2.60;2.40;;;;;;;;;;5029218;28;20296;-32
2022/08/03 01:30:12;;;;;;;3.00;2.13;;;;;;;;;;5024645;28;20559;-32
2022/08/03 01:32:41;;;;;;;2.87;2.67;;;;;;;;;;5026560;28;20419;-32
2022/08/03 01:35:11;;;;;;;2.30;2.20;;;;;;;;;;5031665;28;20208;-33
2022/08/03 01:37:40;;;;;;;3.30;2.33;;;;;;;;;;5027019;28;20230;-31
2022/08/03 01:40:08;;;;;;;2.57;2.30;;;;;;;;;;5029580;28;20210;-31
2022/08/03 01:42:37;;;;;;;2.30;2.10;;;;;;;;;;5028779;28;20201;-30
2022/08/03 01:45:05;;;;;;;2.57;2.40;;;;;;;;;;5022639;28;20217;-30
2022/08/03 01:47:34;;;;;;;3.90;2.47;;;;;;;;;;5024838;28;20225;-29
2022/08/03 01:50:02;;;;;;;3.43;2.43;;;;;;;;;;5030047;28;20232;-32
2022/08/03 01:52:30;;;;;;;3.63;2.10;;;;;;;;;;5026133;28;20273;-33
2022/08/03 01:54:59;;;;;;;2.60;2.40;;;;;;;;;;5033645;28;20213;-31
2022/08/03 01:57:28;;;;;;;4.80;2.63;;;;;;;;;;5031244;28;20555;-34
2022/08/03 01:59:56;;;;;;;2.87;2.40;;;;;;;;;;5023554;28;20255;-30
2022/08/03 02:02:24;;;;;;;3.27;2.77;;;;;;;;;;5032959;28;20208;-31
2022/08/03 02:04:54;;;;;;;2.20;2.10;;;;;;;;;;5048980;28;20205;-34
2022/08/03 02:07:22;;;;;;;2.53;2.33;;;;;;;;;;5026355;28;20225;-33
2022/08/03 02:09:51;;;;;;;2.87;2.67;;;;;;;;;;5029343;28;20239;-34
2022/08/03 02:12:19;;;;;;;2.50;2.30;;;;;;;;;;5029849;28;20228;-32
2022/08/03 02:14:47;;;;;;;3.90;2.37;;;;;;;;;;5031463;28;20205;-30
2022/08/03 02:17:15;;;;;;;2.57;2.20;;;;;;;;;;5027977;28;20224;-33
2022/08/03 02:19:43;;;;;;;2.50;2.30;;;;;;;;;;5041360;28;20201;-31
2022/08/03 02:22:12;;;;;;;2.47;2.27;;;;;;;;;;5025281;28;20210;-31
2022/08/03 02:24:39;;;;;;;2.80;2.60;;;;;;;;;;5034632;28;20198;-29
2022/08/03 02:27:11;;;;;;;2.90;2.50;;;;;;;;;;5034917;28;20229;-33
2022/08/03 02:29:40;;;;;;;4.13;2.40;;;;;;;;;;5024295;28;20203;-31
2022/08/03 02:32:07;;;;;;;2.40;2.20;;;;;;;;;;5037444;28;20208;-33
2022/08/03 02:34:36;;;;;;;2.87;2.50;;;;;;;;;;5047302;28;20227;-30
2022/08/03 02:37:04;;;;;;;2.97;2.60;;;;;;;;;;5026874;28;20230;-32
2022/08/03 02:39:34;;;;;;;2.20;2.10;;;;;;;;;;5041721;28;20212;-32
2022/08/03 02:42:02;;;;;;;2.70;2.50;;;;;;;;;;5053764;28;20209;-32
2022/08/03 02:44:31;;;;;;;4.17;2.23;;;;;;;;;;5019990;28;20310;-29
2022/08/03 02:47:01;;;;;;;4.57;2.20;;;;;;;;;;5032664;28;20239;-30
2022/08/03 02:49:30;;;;;;;2.33;2.13;;;;;;;;;;5032905;28;20217;-33
2022/08/03 02:51:58;;;;;;;2.37;2.07;;;;;;;;;;5018560;28;20218;-31
2022/08/03 02:54:27;;;;;;;2.77;2.03;;;;;;;;;;5031652;28;20282;-31
2022/08/03 02:56:57;;;;;;;2.00;1.87;;;;;;;;;;5053114;28;20221;-30
2022/08/03 02:59:25;;;;;;;4.40;2.10;;;;;;;;;;5053414;28;20218;-32
2022/08/03 03:01:53;;;;;;;2.70;2.30;;;;;;;;;;5026354;28;20218;-33
2022/08/03 03:04:22;;;;;;;2.33;2.13;;;;;;;;;;5028557;28;20223;-33
2022/08/03 03:06:49;;;;;;;4.27;2.23;;;;;;;;;;5034970;28;20225;-31
2022/08/03 03:09:17;;;;;;;4.07;2.47;;;;;;;;;;5026584;28;20236;-31
2022/08/03 03:11:44;;;;;;;3.67;2.27;;;;;;;;;;5048493;28;20219;-32
2022/08/03 03:14:13;;;;;;;3.43;2.40;;;;;;;;;;5042105;28;20316;-34
2022/08/03 03:16:41;;;;;;;2.10;1.80;;;;;;;;;;5032951;28;20223;-31
2022/08/03 03:19:08;;;;;;;2.97;1.93;;;;;;;;;;5043346;28;20209;-31
2022/08/03 03:21:35;;;;;;;2.47;2.27;;;;;;;;;;5030206;28;20201;-34
2022/08/03 03:24:03;;;;;;;3.27;2.67;;;;;;;;;;5043967;28;20213;-31
2022/08/03 03:26:30;;;;;;;3.17;2.50;;;;;;;;;;5038394;28;20229;-31
2022/08/03 03:28:57;;;;;;;2.53;2.43;;;;;;;;;;5022216;28;20213;-33
2022/08/03 03:31:26;;;;;;;4.40;2.77;;;;;;;;;;5024356;28;20203;-32
2022/08/03 03:33:53;;;;;;;3.47;2.60;;;;;;;;;;5040183;28;20202;-33
2022/08/03 03:36:20;;;;;;;3.70;2.50;;;;;;;;;;5035181;28;20212;-31
2022/08/03 03:38:47;;;;;;;5.23;2.60;;;;;;;;;;5037457;28;20235;-31
2022/08/03 03:41:14;;;;;;;5.30;2.63;;;;;;;;;;5051800;28;20211;-31
2022/08/03 03:43:42;;;;;;;2.60;2.40;;;;;;;;;;5052964;28;20211;-30
2022/08/03 03:46:09;;;;;;;3.03;2.40;;;;;;;;;;5036228;28;20226;-33
2022/08/03 03:48:38;;;;;;;2.13;1.90;;;;;;;;;;5035181;28;20199;-33
2022/08/03 03:51:05;;;;;;;2.93;2.27;;;;;;;;;;5029401;28;20221;-32
2022/08/03 03:53:32;;;;;;;2.63;2.43;;;;;;;;;;5029445;28;20214;-30
2022/08/03 03:55:59;;;;;;;4.77;2.13;;;;;;;;;;5051373;28;20204;-30
2022/08/03 03:58:26;;;;;;;2.33;2.10;;;;;;;;;;5043380;28;20233;-31
2022/08/03 04:00:53;;;;;;;2.63;2.43;;;;;;;;;;5023282;28;20197;-34
2022/08/03 04:03:21;;;;;;;3.13;2.47;;;;;;;;;;5051131;28;20201;-31
2022/08/03 04:11:20;;;;;;;2.70;2.30;;;;;;;;;;5031024;28;20200;-30
2022/08/03 04:13:49;;;;;;;2.33;2.13;;;;;;;;;;5026654;28;20201;-30
2022/08/03 04:16:18;;;;;;;5.07;2.70;;;;;;;;;;5036423;28;20216;-31
2022/08/03 04:18:47;;;;;;;3.90;2.53;;;;;;;;;;5015943;28;20232;-31
2022/08/03 04:21:17;;;;;;;2.37;2.20;;;;;;;;;;5029133;28;20261;-30
2022/08/03 04:23:46;;;;;;;3.90;2.53;;;;;;;;;;5038457;28;20211;-32
2022/08/03 04:26:15;;;;;;;3.93;2.90;;;;;;;;;;5033243;28;20209;-31
2022/08/03 04:28:44;;;;;;;3.50;2.20;;;;;;;;;;5032480;28;20200;-30
2022/08/03 04:31:12;;;;;;;1.83;1.73;;;;;;;;;;5027923;28;20210;-31
2022/08/03 04:33:40;;;;;;;2.50;2.30;;;;;;;;;;5041837;28;20218;-30
2022/08/03 04:36:08;;;;;;;4.10;2.47;;;;;;;;;;5036729;28;20213;-31
2022/08/03 04:38:39;;;;;;;2.53;2.33;;;;;;;;;;5026665;28;20230;-30
2022/08/03 04:41:07;;;;;;;5.53;2.70;;;;;;;;;;5045173;28;20201;-31
2022/08/03 04:43:34;;;;;;;2.70;2.50;;;;;;;;;;5053062;28;20208;-29
2022/08/03 04:46:02;;;;;;;3.03;2.53;;;;;;;;;;5034511;28;20220;-33
2022/08/03 04:48:29;;;;;;;2.30;2.20;;;;;;;;;;5027527;28;20224;-32
2022/08/03 04:50:57;;;;;;;3.27;2.97;;;;;;;;;;5024943;28;20215;-32
2022/08/03 04:53:24;;;;;;;3.83;2.60;;;;;;;;;;5027752;28;20209;-32
2022/08/03 04:55:52;;;;;;;4.97;3.17;;;;;;;;;;5048573;28;20212;-31
2022/08/03 04:58:19;;;;;;;3.00;2.53;;;;;;;;;;5052163;28;20239;-32
2022/08/03 05:00:50;;;;;;;2.70;2.53;;;;;;;;;;5033646;28;20208;-30
2022/08/03 05:03:17;;;;;;;3.47;3.00;;;;;;;;;;5035547;28;20215;-30
2022/08/03 05:05:44;;;;;;;2.37;2.17;;;;;;;;;;5028078;28;20211;-33
2022/08/03 05:08:11;;;;;;;2.40;2.23;;;;;;;;;;5029561;28;20237;-29
2022/08/03 05:10:38;;;;;;;4.77;2.70;;;;;;;;;;5040989;28;20197;-29
2022/08/03 05:13:10;;;;;;;4.70;2.70;;;;;;;;;;5032776;28;20209;-28
2022/08/03 05:15:37;;;;;;;3.17;2.50;;;;;;;;;;5031080;28;20196;-29
2022/08/03 05:18:05;;;;;;;3.20;2.60;;;;;;;;;;5038777;28;20246;-31
2022/08/03 05:20:32;;;;;;;3.93;2.97;;;;;;;;;;5039562;28;20209;-32
2022/08/03 05:23:00;;;;;;;3.03;2.73;;;;;;;;;;5029768;28;20216;-30
2022/08/03 05:25:39;;;;;;;2.50;2.30;;;;;;;;;;5045381;28;20244;-32
2022/08/03 05:28:08;;;;;;;3.17;2.90;;;;;;;;;;5036318;28;20217;-32
2022/08/03 05:30:35;;;;;;;2.70;2.50;;;;;;;;;;5028572;28;20286;-30
2022/08/03 05:33:02;;;;;;;3.43;2.60;;;;;;;;;;5039124;28;20591;-32
2022/08/03 05:35:30;;;;;;;4.67;2.80;;;;;;;;;;5044234;28;20223;-31
2022/08/03 05:37:57;;;;;;;3.83;2.87;;;;;;;;;;5020024;28;20228;-32
2022/08/03 05:40:24;;;;;;;4.07;2.60;;;;;;;;;;5036191;28;20204;-32
2022/08/03 05:42:51;;;;;;;5.10;2.47;;;;;;;;;;5048406;28;20211;-30
2022/08/03 05:45:19;;;;;;;3.87;2.80;;;;;;;;;;5052405;28;20211;-31
2022/08/03 05:47:46;;;;;;;3.50;3.20;;;;;;;;;;5034540;28;20229;-29
2022/08/03 05:50:14;;;;;;;3.10;2.90;;;;;;;;;;5030327;28;20205;-31
2022/08/03 05:52:42;;;;;;;4.10;3.13;;;;;;;;;;5032768;28;20239;-27
2022/08/03 05:55:10;;;;;;;3.20;2.90;;;;;;;;;;5029310;28;20278;-30
2022/08/03 05:57:37;;;;;;;3.10;2.80;;;;;;;;;;5051370;28;20239;-32
2022/08/03 06:00:05;;;;;;;3.37;3.07;;;;;;;;;;5026386;28;20219;-30
2022/08/03 06:02:34;;;;;;;3.77;3.37;;;;;;;;;;5030841;28;20285;-30
2022/08/03 06:05:02;;;;;;;3.53;2.77;;;;;;;;;;5031768;28;20208;-31
2022/08/03 06:07:29;;;;;;;2.87;2.67;;;;;;;;;;5021115;28;20225;-31
2022/08/03 06:09:56;;;;;;;3.83;3.27;;;;;;;;;;5025180;28;20235;-30
2022/08/03 06:12:23;;;;;;;4.33;3.03;;;;;;;;;;5035800;28;20209;-31
2022/08/03 06:14:50;;;;;;;3.93;2.97;;;;;;;;;;5019896;28;20230;-32
2022/08/03 06:17:17;;;;;;;3.67;3.33;;;;;;;;;;5042882;28;20232;-33
2022/08/03 06:19:46;;;;;;;3.70;2.90;;;;;;;;;;5051312;28;20221;-28
2022/08/03 06:22:13;;;;;;;3.10;2.80;;;;;;;;;;5028783;28;20229;-31
2022/08/03 06:24:40;;;;;;;3.57;2.77;;;;;;;;;;5040847;28;20205;-29
2022/08/03 06:27:07;;;;;;;4.37;2.70;;;;;;;;;;5018841;28;20230;-31
2022/08/03 06:29:34;;;;;;;5.40;3.03;;;;;;;;;;5023472;28;20201;-30
2022/08/03 06:32:02;;;;;;;4.67;2.97;;;;;;;;;;5032894;28;20236;-31
2022/08/03 06:34:29;;;;;;;3.33;2.93;;;;;;;;;;5031066;28;20220;-32
2022/08/03 06:36:57;;;;;;;3.97;3.03;;;;;;;;;;5022394;28;20231;-32
2022/08/03 06:39:24;;;;;;;3.37;2.83;;;;;;;;;;5044297;28;20230;-28
2022/08/03 06:41:53;;;;;;;2.80;2.60;;;;;;;;;;5029008;28;20206;-33
2022/08/03 06:44:20;;;;;;;3.50;3.20;;;;;;;;;;5292261;22;20212;-30
2022/08/03 06:46:47;;;;;;;2.90;2.40;;;;;;;;;;5015214;28;20262;-38
2022/08/03 06:49:14;;;;;;;2.55;2.35;;;;;;;;;;5022875;28;20198;-36
2022/08/03 06:51:42;;;;;;;2.72;2.53;;;;;;;;;;5021544;28;20703;-37
2022/08/03 06:54:11;;;;;;;2.30;2.20;;;;;;;;;;5031158;28;20218;-40
2022/08/03 06:56:38;;;;;;;6.78;2.60;;;;;;;;;;5031959;28;20226;-38
2022/08/03 06:59:05;;;;;;;2.53;2.33;;;;;;;;;;5029002;28;20225;-38
2022/08/03 07:01:32;;;;;;;3.42;2.80;;;;;;;;;;5014631;28;20210;-36
2022/08/03 07:04:00;;;;;;;4.28;3.03;;;;;;;;;;5025061;28;20239;-37
2022/08/03 07:06:27;;;;;;;2.60;2.42;;;;;;;;;;5029364;28;20208;-39
2022/08/03 07:08:55;;;;;;;2.58;2.22;;;;;;;;;;5021809;28;20228;-33
2022/08/03 07:11:24;;;;;;;2.75;2.13;;;;;;;;;;5034853;28;20211;-35
2022/08/03 07:13:55;;;;;;;2.55;2.35;;;;;;;;;;5035227;28;20298;-37
2022/08/03 07:16:24;;;;;;;2.35;2.08;;;;;;;;;;5024279;28;20211;-34
2022/08/03 07:18:51;;;;;;;2.75;2.17;;;;;;;;;;5016073;28;20228;-36
2022/08/03 07:21:18;;;;;;;3.60;2.20;;;;;;;;;;5020277;28;20206;-37
2022/08/03 07:23:46;;;;;;;2.65;2.45;;;;;;;;;;5023492;28;20210;-36
2022/08/03 07:26:13;;;;;;;2.88;2.70;;;;;;;;;;5023440;28;20277;-35
2022/08/03 07:28:41;;;;;;;2.10;2.00;;;;;;;;;;5031585;28;20212;-34
2022/08/03 07:31:09;;;;;;;3.05;2.28;;;;;;;;;;5026845;28;20203;-34
2022/08/03 07:33:36;;;;;;;2.05;1.95;;;;;;;;;;5021206;28;20215;-38
2022/08/03 07:36:03;;;;;;;2.78;2.17;;;;;;;;;;5020971;28;20206;-37
2022/08/03 07:38:30;;;;;;;2.05;1.95;;;;;;;;;;5028462;28;20281;-36
2022/08/03 07:40:58;;;;;;;2.60;2.30;;;;;;;;;;5027113;28;20273;-34
2022/08/03 07:43:25;;;;;;;2.78;2.30;;;;;;;;;;5034794;28;20213;-31
2022/08/03 07:45:54;;;;;;;2.70;2.30;;;;;;;;;;5024503;28;20217;-34
2022/08/03 07:48:21;;;;;;;3.13;2.05;;;;;;;;;;5024741;28;20223;-35
2022/08/03 07:50:49;;;;;;;2.92;2.47;;;;;;;;;;5024316;28;20203;-32
2022/08/03 07:53:16;;;;;;;2.75;2.42;;;;;;;;;;5032923;28;20226;-35
2022/08/03 07:55:46;;;;;;;2.67;2.15;;;;;;;;;;5021129;28;20269;-33
2022/08/03 07:58:16;;;;;;;4.80;2.20;;;;;;;;;;5016147;28;20297;-34
2022/08/03 08:00:43;;;;;;;3.28;2.55;;;;;;;;;;5027290;28;20294;-37
2022/08/03 08:03:12;;;;;;;2.22;2.10;;;;;;;;;;5013973;28;20676;-34
2022/08/03 08:05:40;;;;;;;4.70;2.05;;;;;;;;;;5015885;28;20207;-35
2022/08/03 08:08:08;;;;;;;2.60;1.73;;;;;;;;;;5020366;28;20305;-33
2022/08/03 08:10:35;;;;;;;4.15;2.10;;;;;;;;;;5026090;28;20199;-34
2022/08/03 08:13:02;;;;;;;1.95;1.85;;;;;;;;;;5032664;28;20220;-31
2022/08/03 08:15:32;;;;;;;2.35;2.03;;;;;;;;;;5031022;28;20202;-36
2022/08/03 08:18:01;;;;;;;2.08;1.88;;;;;;;;;;5032185;28;20222;-33
2022/08/03 08:20:36;;;;;;;1.80;1.70;;;;;;;;;;5022283;28;20661;-36
2022/08/03 08:23:04;;;;;;;2.20;2.00;;;;;;;;;;5012954;28;20250;-33
2022/08/03 08:25:32;;;;;;;4.45;2.05;;;;;;;;;;5021906;28;20207;-35
2022/08/03 08:28:01;;;;;;;1.90;1.80;;;;;;;;;;5012606;28;20227;-31
2022/08/03 08:30:28;;;;;;;2.10;1.83;;;;;;;;;;5027712;28;20207;-34
2022/08/03 08:32:56;;;;;;;1.88;1.77;;;;;;;;;;5021134;28;20202;-31
2022/08/03 08:35:23;;;;;;;4.32;2.10;;;;;;;;;;5030089;28;20207;-35
2022/08/03 08:37:52;;;;;;;2.33;1.70;;;;;;;;;;5021406;28;20225;-35
2022/08/03 08:40:23;;;;;;;3.15;1.88;;;;;;;;;;5024403;28;20218;-35
2022/08/03 08:42:50;;;;;;;2.45;2.25;;;;;;;;;;5033220;28;20210;-33
2022/08/03 08:45:18;;;;;;;4.13;1.88;;;;;;;;;;5016009;28;20314;-37
2022/08/03 08:47:46;;;;;;;3.03;2.28;;;;;;;;;;5023425;28;20230;-33
2022/08/03 08:50:14;;;;;;;2.13;1.52;;;;;;;;;;5012546;28;20230;-31
2022/08/03 08:52:42;;;;;;;2.15;1.88;;;;;;;;;;5019060;28;20203;-34
2022/08/03 08:55:12;;;;;;;3.88;1.95;;;;;;;;;;5031597;28;20222;-36
2022/08/03 08:57:42;;;;;;;1.85;1.75;;;;;;;;;;5032912;28;20226;-35
2022/08/03 09:00:13;;;;;;;1.90;1.80;;;;;;;;;;5027162;28;20222;-31
2022/08/03 09:02:41;;;;;;;1.77;1.67;;;;;;;;;;5018781;28;20194;-34
2022/08/03 09:05:10;;;;;;;3.53;1.90;;;;;;;;;;5020747;28;20290;-36
2022/08/03 09:07:38;;;;;;;2.40;1.90;;;;;;;;;;5016004;28;20234;-33
2022/08/03 09:10:06;;;;;;;2.20;2.00;;;;;;;;;;5014810;28;20269;-38
2022/08/03 09:12:40;;;;;;;2.10;1.90;;;;;;;;;;5033260;28;20230;-35
2022/08/03 09:15:20;;;;;;;2.05;1.95;;;;;;;;;;5027070;28;20297;-33
2022/08/03 09:17:48;;;;;;;2.63;1.95;;;;;;;;;;5040683;28;20312;-36
2022/08/03 09:20:15;;;;;;;1.67;1.58;;;;;;;;;;5028166;28;20494;-32
2022/08/03 09:22:55;;;;;;;2.50;2.30;;;;;;;;;;5020500;28;20199;-34
2022/08/03 09:25:31;;;;;;;1.67;1.58;;;;;;;;;;5017299;28;20248;-35
2022/08/03 09:28:09;;;;;;;1.70;1.60;;;;;;;;;;5028893;28;20226;-34
2022/08/03 09:30:37;;;;;;;2.25;1.90;;;;;;;;;;5026651;28;20206;-34
2022/08/03 09:33:05;;;;;;;2.05;1.85;;;;;;;;;;5028592;28;20305;-35
2022/08/03 09:35:33;;;;;;;3.75;2.28;;;;;;;;;;5030267;28;20221;-34
2022/08/03 09:38:10;;;;;;;2.63;1.60;;;;;;;;;;5029010;28;20237;-34
2022/08/03 09:40:39;;;;;;;2.05;1.90;;;;;;;;;;5032945;28;20271;-33
2022/08/03 09:43:08;;;;;;;1.60;1.50;;;;;;;;;;5030685;28;20249;-35
2022/08/03 09:45:36;;;;;;;5.05;2.00;;;;;;;;;;5028655;28;20202;-36
2022/08/03 09:48:21;;;;;;;4.43;1.83;;;;;;;;;;5029812;28;20260;-34
2022/08/03 09:50:51;;;;;;;1.60;1.50;;;;;;;;;;5022306;28;20210;-32
2022/08/03 09:53:18;;;;;;;1.98;1.45;;;;;;;;;;5028769;28;20203;-32
2022/08/03 09:55:52;;;;;;;2.55;1.25;;;;;;;;;;5031030;28;20213;-36
2022/08/03 09:58:26;;;;;;;1.67;1.58;;;;;;;;;;5032676;28;20233;-35
2022/08/03 10:00:54;;;;;;;4.60;2.08;;;;;;;;;;5026164;28;20219;-36
2022/08/03 10:03:21;;;;;;;1.45;1.35;;;;;;;;;;5038463;28;20567;-33
2022/08/03 10:05:48;;;;;;;1.88;1.30;;;;;;;;;;5027352;28;20203;-37
2022/08/03 10:08:16;;;;;;;2.58;1.30;;;;;;;;;;5018836;28;20223;-33
2022/08/03 10:10:43;;;;;;;1.27;1.17;;;;;;;;;;5033945;28;20202;-36
2022/08/03 10:13:12;;;;;;;3.85;1.40;;;;;;;;;;5047654;28;20259;-35
2022/08/03 10:15:41;;;;;;;1.85;1.10;;;;;;;;;;5025659;28;20210;-36
2022/08/03 10:18:08;;;;;;;1.40;1.30;;;;;;;;;;5031217;28;20230;-35
2022/08/03 10:20:37;;;;;;;1.30;1.20;;;;;;;;;;5036107;28;20245;-37
2022/08/03 10:23:05;;;;;;;1.30;1.20;;;;;;;;;;5014683;28;20218;-38
2022/08/03 10:25:34;;;;;;;1.17;1.17;;;;;;;;;;5021106;28;20207;-36
2022/08/03 10:28:03;;;;;;;1.40;1.30;;;;;;;;;;5029806;28;20239;-38
2022/08/03 10:30:31;;;;;;;2.60;1.50;;;;;;;;;;5036012;28;20269;-40
2022/08/03 10:33:03;;;;;;;1.38;1.30;;;;;;;;;;5029809;28;20211;-36
2022/08/03 10:35:33;;;;;;;1.10;1.10;;;;;;;;;;5030247;28;20237;-37
2022/08/03 10:38:03;;;;;;;2.55;1.40;;;;;;;;;;5025507;28;20225;-39
2022/08/03 10:40:31;;;;;;;3.20;1.20;;;;;;;;;;5031882;28;20293;-33
2022/08/03 10:43:00;;;;;;;2.33;1.42;;;;;;;;;;5040085;28;20205;-35
2022/08/03 10:45:28;;;;;;;1.33;1.17;;;;;;;;;;5036502;28;20214;-36
2022/08/03 10:47:56;;;;;;;2.35;1.38;;;;;;;;;;5034687;28;20230;-35
2022/08/03 10:50:28;;;;;;;1.50;1.40;;;;;;;;;;5033633;28;20273;-36
2022/08/03 10:52:57;;;;;;;1.45;1.38;;;;;;;;;;5036499;28;20259;-32
2022/08/03 10:58:16;;;;;;;1.20;1.17;;;;;;;;;;5044663;28;20225;-35
2022/08/03 11:00:49;;;;;;;1.27;1.17;;;;;;;;;;5030126;28;20214;-34
2022/08/03 11:03:17;;;;;;;1.50;1.40;;;;;;;;;;5026453;28;20203;-35
2022/08/03 11:05:45;;;;;;;2.28;1.13;;;;;;;;;;5024889;28;20200;-35
2022/08/03 11:08:21;;;;;;;3.13;1.30;;;;;;;;;;5023777;28;20242;-36
2022/08/03 11:10:50;;;;;;;1.27;1.27;;;;;;;;;;5024657;28;20201;-32
2022/08/03 11:13:18;;;;;;;2.08;1.17;;;;;;;;;;5034552;28;20208;-34
2022/08/03 11:15:46;;;;;;;2.25;1.60;;;;;;;;;;5031891;28;20236;-34
2022/08/03 11:18:14;;;;;;;2.13;1.25;;;;;;;;;;5030851;28;20239;-34
2022/08/03 11:20:44;;;;;;;2.05;1.48;;;;;;;;;;5019364;28;20230;-31
2022/08/03 11:23:13;;;;;;;1.80;1.70;;;;;;;;;;5024534;28;20304;-32
2022/08/03 11:25:59;;;;;;;2.78;1.52;;;;;;;;;;5026155;28;20208;-35
2022/08/03 11:28:28;;;;;;;1.45;1.20;;;;;;;;;;5034643;28;20309;-31
2022/08/03 11:31:23;;;;;;;1.23;1.17;;;;;;;;;;5025930;28;20206;-36
2022/08/03 11:34:04;;;;;;;3.38;1.45;;;;;;;;;;5024376;28;20216;-33
2022/08/03 11:36:31;;;;;;;1.20;1.20;;;;;;;;;;5021221;28;20218;-32
2022/08/03 11:39:13;;;;;;;1.40;1.40;;;;;;;;;;5020919;28;20203;-35
2022/08/03 11:41:40;;;;;;;1.42;1.35;;;;;;;;;;5042364;28;20198;-32
2022/08/03 11:44:29;;;;;;;1.95;1.30;;;;;;;;;;5030721;28;20207;-33
2022/08/03 11:46:59;;;;;;;2.67;1.20;;;;;;;;;;5025185;28;20233;-33
2022/08/03 11:49:26;;;;;;;1.70;1.30;;;;;;;;;;5035133;28;20206;-36
2022/08/03 11:51:53;;;;;;;1.60;1.50;;;;;;;;;;5025729;28;20413;-35
2022/08/03 11:54:21;;;;;;;2.15;1.40;;;;;;;;;;5035143;28;20217;-33
2022/08/03 11:56:50;;;;;;;1.48;1.38;;;;;;;;;;5037294;28;20287;-34
2022/08/03 11:59:17;;;;;;;3.15;1.65;;;;;;;;;;5031483;28;20206;-37
2022/08/03 12:01:44;;;;;;;1.40;1.30;;;;;;;;;;5028700;28;20213;-35
2022/08/03 12:04:15;;;;;;;3.85;1.40;;;;;;;;;;5025426;28;20206;-33
2022/08/03 12:06:54;;;;;;;1.70;1.60;;;;;;;;;;5029582;28;20293;-33
2022/08/03 12:09:21;;;;;;;1.45;1.35;;;;;;;;;;5015629;28;20206;-36
2022/08/03 12:11:49;;;;;;;1.30;1.30;;;;;;;;;;5027427;28;20214;-35
2022/08/03 12:14:26;;;;;;;1.25;1.20;;;;;;;;;;5037848;28;20233;-35
2022/08/03 12:16:53;;;;;;;1.77;1.25;;;;;;;;;;5014392;28;20230;-31
2022/08/03 12:19:22;;;;;;;1.50;1.40;;;;;;;;;;5016530;28;20214;-35
2022/08/03 12:21:49;;;;;;;1.80;1.67;;;;;;;;;;5018776;28;20240;-35
2022/08/03 12:24:17;;;;;;;1.63;1.52;;;;;;;;;;5025047;28;20203;-33
2022/08/03 12:26:45;;;;;;;1.60;1.50;;;;;;;;;;5033824;28;20237;-33
2022/08/03 12:29:17;;;;;;;1.23;1.17;;;;;;;;;;5028276;28;20207;-33
2022/08/03 12:31:44;;;;;;;4.32;1.20;;;;;;;;;;5028029;28;20202;-31
2022/08/03 12:34:12;;;;;;;1.35;1.33;;;;;;;;;;5025545;28;20210;-32
2022/08/03 12:36:50;;;;;;;1.45;1.33;;;;;;;;;;5018321;28;20227;-33
2022/08/03 12:39:20;;;;;;;1.75;1.65;;;;;;;;;;5019928;28;20203;-36
2022/08/03 12:41:53;;;;;;;1.63;1.52;;;;;;;;;;5027521;28;20202;-35
2022/08/03 12:49:24;;;;;;;1.40;1.30;;;;;;;;;;5014262;28;20223;-35
2022/08/03 12:52:00;;;;;;;3.30;1.40;;;;;;;;;;5010168;28;20210;-35
2022/08/03 12:54:29;;;;;;;1.10;1.10;;;;;;;;;;5028629;28;20487;-38
2022/08/03 12:57:00;;;;;;;1.38;1.35;;;;;;;;;;5030464;28;20227;-37
2022/08/03 12:59:34;;;;;;;2.25;1.20;;;;;;;;;;5017144;28;20253;-36
2022/08/03 13:02:02;;;;;;;1.75;1.30;;;;;;;;;;5025363;28;20209;-43
2022/08/03 13:04:29;;;;;;;1.42;1.33;;;;;;;;;;5026526;28;20199;-42
2022/08/03 13:07:02;;;;;;;1.42;1.33;;;;;;;;;;5016040;28;20230;-38
2022/08/03 13:09:30;;;;;;;1.45;1.33;;;;;;;;;;5011588;28;20202;-39
2022/08/03 13:12:09;;;;;;;1.25;1.25;;;;;;;;;;5015187;28;20207;-36
2022/08/03 13:14:36;;;;;;;1.33;1.20;;;;;;;;;;5024224;28;20194;-38
2022/08/03 13:17:03;;;;;;;1.50;1.40;;;;;;;;;;5029859;28;20318;-39
2022/08/03 13:19:32;;;;;;;1.67;1.52;;;;;;;;;;5017471;28;20318;-38
2022/08/03 13:21:59;;;;;;;1.30;1.30;;;;;;;;;;5007467;28;20207;-41
2022/08/03 13:24:27;;;;;;;2.30;1.40;;;;;;;;;;5022794;28;20230;-38
2022/08/03 13:26:54;;;;;;;1.42;1.20;;;;;;;;;;5025127;28;20218;-39
2022/08/03 13:29:21;;;;;;;1.38;1.27;;;;;;;;;;5028329;28;20206;-39
2022/08/03 13:31:49;;;;;;;1.08;1.08;;;;;;;;;;5010019;28;20206;-41
2022/08/03 13:34:16;;;;;;;1.38;1.27;;;;;;;;;;5014800;28;20213;-38
2022/08/03 13:36:43;;;;;;;1.58;1.48;;;;;;;;;;5018478;28;20250;-36
2022/08/03 13:39:10;;;;;;;1.40;1.30;;;;;;;;;;5020028;28;20211;-36
2022/08/03 13:41:41;;;;;;;1.92;1.50;;;;;;;;;;5021746;28;20245;-42
2022/08/03 13:44:08;;;;;;;1.30;1.30;;;;;;;;;;5027670;28;20532;-37
2022/08/03 13:46:35;;;;;;;1.30;1.20;;;;;;;;;;5015334;28;20246;-38
2022/08/03 13:49:02;;;;;;;1.35;1.25;;;;;;;;;;5018083;28;20210;-36
2022/08/03 13:51:29;;;;;;;1.30;1.20;;;;;;;;;;5013805;28;20211;-40
2022/08/03 13:53:58;;;;;;;1.42;1.33;;;;;;;;;;5018159;28;20211;-35
2022/08/03 13:56:25;;;;;;;1.42;1.10;;;;;;;;;;5022856;28;20207;-41
2022/08/03 13:58:54;;;;;;;1.40;1.30;;;;;;;;;;5020105;28;20210;-39
2022/08/03 14:01:21;;;;;;;3.53;1.75;;;;;;;;;;5029016;28;20228;-38
2022/08/03 14:03:51;;;;;;;1.63;1.50;;;;;;;;;;5030510;28;20214;-38
2022/08/03 14:06:18;;;;;;;1.55;1.40;;;;;;;;;;5024357;28;20285;-39
2022/08/03 14:08:46;;;;;;;1.42;1.33;;;;;;;;;;5013657;28;20206;-38
2022/08/03 14:11:14;;;;;;;1.65;1.55;;;;;;;;;;5025751;28;20704;-38
2022/08/03 14:13:41;;;;;;;1.52;1.42;;;;;;;;;;5035510;28;20225;-39
2022/08/03 14:16:09;;;;;;;1.75;1.10;;;;;;;;;;5029437;28;20202;-36
2022/08/03 14:18:36;;;;;;;1.25;1.20;;;;;;;;;;5029925;28;20202;-38
2022/08/03 14:21:05;;;;;;;2.42;1.40;;;;;;;;;;5017201;28;20218;-40
2022/08/03 14:23:32;;;;;;;1.60;1.50;;;;;;;;;;5030577;28;20210;-39
2022/08/03 14:25:59;;;;;;;1.30;1.20;;;;;;;;;;5024964;28;20206;-35
2022/08/03 14:28:27;;;;;;;1.48;1.20;;;;;;;;;;5022830;28;20237;-41
2022/08/03 14:30:56;;;;;;;2.05;1.20;;;;;;;;;;5029180;28;20198;-40
2022/08/03 14:33:24;;;;;;;2.15;1.63;;;;;;;;;;5022757;28;20203;-35
2022/08/03 14:35:52;;;;;;;1.85;1.52;;;;;;;;;;5018286;28;20205;-39
2022/08/03 14:38:19;;;;;;;1.40;1.30;;;;;;;;;;5027863;28;20218;-33
2022/08/03 14:40:46;;;;;;;1.45;1.35;;;;;;;;;;5030666;28;20222;-38
2022/08/03 14:43:13;;;;;;;1.65;1.42;;;;;;;;;;5032399;28;20208;-34
2022/08/03 14:45:52;;;;;;;2.55;1.13;;;;;;;;;;5026607;28;20207;-41
2022/08/03 14:48:19;;;;;;;1.60;1.50;;;;;;;;;;5024052;28;20226;-37
2022/08/03 14:50:48;;;;;;;1.63;1.30;;;;;;;;;;5020540;28;20229;-33
2022/08/03 14:53:16;;;;;;;1.40;1.30;;;;;;;;;;5029351;28;20203;-39
2022/08/03 14:55:43;;;;;;;1.35;1.25;;;;;;;;;;5022364;28;20207;-32
2022/08/03 14:58:10;;;;;;;1.77;1.40;;;;;;;;;;5036355;28;20238;-39
2022/08/03 15:00:37;;;;;;;1.33;1.23;;;;;;;;;;5023965;28;20227;-35
2022/08/03 15:03:04;;;;;;;1.58;1.00;;;;;;;;;;5017837;28;20270;-34
2022/08/03 15:05:32;;;;;;;1.50;1.40;;;;;;;;;;5022240;28;20216;-38
2022/08/03 15:08:00;;;;;;;1.10;1.10;;;;;;;;;;5028151;28;20231;-36